createdAt,value
2017-08-17T00:00:07.117Z,13.30
2017-08-17T00:02:34.691Z,13.30
2017-08-17T00:05:02.270Z,13.30
2017-08-17T00:07:29.839Z,13.30
2017-08-17T00:09:57.421Z,13.20
2017-08-17T00:12:24.994Z,13.20
2017-08-17T00:14:52.562Z,13.20
2017-08-17T00:17:20.143Z,13.10
2017-08-17T00:19:47.704Z,13.10
2017-08-17T00:22:15.433Z,13.10
2017-08-17T00:24:43.016Z,13.10
2017-08-17T00:27:10.598Z,13.10
2017-08-17T00:29:38.204Z,13.10
2017-08-17T00:32:05.774Z,13.10
2017-08-17T00:34:33.332Z,13.00
2017-08-17T00:37:00.944Z,13.00
2017-08-17T00:39:28.513Z,13.00
2017-08-17T00:41:56.069Z,12.80
2017-08-17T00:44:23.687Z,12.80
2017-08-17T00:46:51.252Z,12.80
2017-08-17T00:49:18.804Z,12.80
2017-08-17T00:51:46.392Z,12.80
2017-08-17T00:54:13.948Z,12.70
2017-08-17T00:56:41.496Z,12.70
2017-08-17T00:59:09.095Z,12.70
2017-08-17T01:01:36.683Z,12.70
2017-08-17T01:04:04.267Z,12.70
2017-08-17T01:06:31.870Z,12.70
2017-08-17T01:08:59.444Z,12.70
2017-08-17T01:11:27.035Z,12.70
2017-08-17T01:13:54.666Z,12.80
2017-08-17T01:16:22.257Z,12.80
2017-08-17T01:18:49.785Z,12.80
2017-08-17T01:21:17.556Z,12.80
2017-08-17T01:23:45.171Z,12.80
2017-08-17T01:26:12.730Z,12.80
2017-08-17T01:28:40.286Z,12.80
2017-08-17T01:31:07.857Z,12.80
2017-08-17T01:33:35.907Z,12.80
2017-08-17T01:36:03.675Z,12.80
2017-08-17T01:38:32.133Z,12.80
2017-08-17T01:40:59.697Z,12.70
2017-08-17T01:43:27.297Z,12.70
2017-08-17T01:45:54.836Z,12.70
2017-08-17T01:48:22.397Z,12.70
2017-08-17T01:50:50.688Z,12.70
2017-08-17T01:53:18.279Z,12.70
2017-08-17T01:55:45.851Z,12.70
2017-08-17T01:58:13.624Z,12.70
2017-08-17T02:00:41.210Z,12.70
2017-08-17T02:03:08.794Z,12.70
2017-08-17T02:05:36.422Z,12.70
2017-08-17T02:08:03.949Z,12.70
2017-08-17T02:10:31.525Z,12.70
2017-08-17T02:12:59.141Z,12.80
2017-08-17T02:15:26.694Z,12.80
2017-08-17T02:17:54.254Z,12.80
2017-08-17T02:20:21.845Z,12.80
2017-08-17T02:22:49.398Z,12.80
2017-08-17T02:25:16.947Z,12.80
2017-08-17T02:27:44.656Z,12.80
2017-08-17T02:30:12.204Z,12.80
2017-08-17T02:32:39.715Z,12.80
2017-08-17T02:35:07.484Z,12.80
2017-08-17T02:37:35.025Z,12.80
2017-08-17T02:40:02.574Z,12.70
2017-08-17T02:42:30.248Z,12.60
2017-08-17T02:44:57.821Z,12.50
2017-08-17T02:47:25.384Z,12.50
2017-08-17T02:49:52.963Z,12.50
2017-08-17T02:52:20.512Z,12.50
2017-08-17T02:54:48.089Z,12.60
2017-08-17T02:57:15.824Z,12.70
2017-08-17T02:59:43.347Z,12.80
2017-08-17T03:02:10.855Z,12.80
2017-08-17T03:04:38.502Z,12.80
2017-08-17T03:07:06.066Z,12.70
2017-08-17T03:09:33.562Z,12.70
2017-08-17T03:12:01.146Z,12.70
2017-08-17T03:14:28.704Z,12.80
2017-08-17T03:16:56.223Z,12.80
2017-08-17T03:19:23.775Z,12.80
2017-08-17T03:21:51.318Z,12.80
2017-08-17T03:24:18.874Z,12.70
2017-08-17T03:26:46.445Z,12.60
2017-08-17T03:29:14.023Z,12.60
2017-08-17T03:31:41.553Z,12.40
2017-08-17T03:34:09.289Z,12.40
2017-08-17T03:36:36.839Z,12.40
2017-08-17T03:39:04.420Z,12.30
2017-08-17T03:41:32.029Z,12.30
2017-08-17T03:43:59.523Z,12.30
2017-08-17T03:46:27.084Z,12.30
2017-08-17T03:48:54.679Z,12.20
2017-08-17T03:51:22.190Z,12.20
2017-08-17T03:53:49.716Z,12.20
2017-08-17T03:56:17.296Z,12.20
2017-08-17T03:58:44.866Z,12.30
2017-08-17T04:01:12.422Z,12.30
2017-08-17T04:03:40.150Z,12.30
2017-08-17T04:06:07.714Z,12.40
2017-08-17T04:08:35.256Z,12.40
2017-08-17T04:11:03.029Z,12.50
2017-08-17T04:13:30.560Z,12.60
2017-08-17T04:15:58.143Z,12.60
2017-08-17T04:18:26.445Z,12.80
2017-08-17T04:20:54.006Z,13.20
2017-08-17T04:23:21.529Z,13.60
2017-08-17T04:25:49.158Z,14.10
2017-08-17T04:28:16.699Z,14.20
2017-08-17T04:30:44.327Z,14.10
2017-08-17T04:33:11.853Z,14.00
2017-08-17T04:35:39.378Z,14.00
2017-08-17T04:38:06.957Z,14.10
2017-08-17T04:40:34.554Z,14.20
2017-08-17T04:43:02.102Z,14.60
2017-08-17T04:45:29.656Z,15.00
2017-08-17T04:47:57.201Z,15.90
2017-08-17T04:50:24.782Z,17.00
2017-08-17T04:52:52.365Z,17.60
2017-08-17T04:55:19.910Z,17.50
2017-08-17T04:58:04.867Z,18.50
2017-08-17T05:00:32.476Z,19.90
2017-08-17T05:03:00.014Z,21.20
2017-08-17T05:05:27.569Z,22.00
2017-08-17T05:07:55.141Z,23.10
2017-08-17T05:10:22.683Z,24.00
2017-08-17T05:12:50.239Z,24.60
2017-08-17T05:15:17.810Z,24.80
2017-08-17T05:17:45.394Z,24.50
2017-08-17T05:20:12.987Z,24.60
2017-08-17T05:22:40.563Z,25.40
2017-08-17T05:25:08.097Z,26.30
2017-08-17T05:27:35.630Z,27.20
2017-08-17T05:30:03.225Z,27.70
2017-08-17T05:32:30.729Z,28.60
2017-08-17T05:34:58.231Z,29.20
2017-08-17T05:37:25.762Z,29.60
2017-08-17T05:39:53.310Z,29.50
2017-08-17T05:42:20.864Z,29.30
2017-08-17T05:44:48.437Z,28.80
2017-08-17T05:47:16.001Z,29.80
2017-08-17T05:49:43.668Z,29.70
2017-08-17T05:52:11.263Z,30.40
2017-08-17T05:54:38.819Z,30.80
2017-08-17T05:57:06.393Z,30.70
2017-08-17T05:59:33.947Z,29.70
2017-08-17T06:02:01.470Z,29.70
2017-08-17T06:04:29.023Z,30.10
2017-08-17T06:06:56.731Z,29.40
2017-08-17T06:09:24.350Z,30.20
2017-08-17T06:11:51.865Z,29.70
2017-08-17T06:14:20.092Z,30.00
2017-08-17T06:16:48.063Z,30.70
2017-08-17T06:19:15.602Z,30.90
2017-08-17T06:21:43.192Z,29.50
2017-08-17T06:24:10.765Z,29.40
2017-08-17T06:26:38.294Z,28.90
2017-08-17T06:29:05.852Z,28.30
2017-08-17T06:31:33.394Z,28.30
2017-08-17T06:34:00.956Z,28.60
2017-08-17T06:36:28.546Z,30.30
2017-08-17T06:38:56.098Z,31.60
2017-08-17T06:41:23.623Z,32.00
2017-08-17T06:43:51.167Z,32.70
2017-08-17T06:46:18.852Z,32.90
2017-08-17T06:48:46.401Z,33.00
2017-08-17T06:51:13.968Z,33.60
2017-08-17T06:53:41.484Z,33.10
2017-08-17T06:56:09.055Z,33.90
2017-08-17T06:58:36.622Z,34.70
2017-08-17T07:01:04.178Z,33.80
2017-08-17T07:03:31.679Z,33.60
2017-08-17T07:05:59.318Z,32.30
2017-08-17T07:08:26.862Z,31.20
2017-08-17T07:10:54.354Z,31.30
2017-08-17T07:13:21.957Z,31.90
2017-08-17T07:15:49.485Z,33.00
2017-08-17T07:18:17.084Z,32.70
2017-08-17T07:20:44.653Z,33.10
2017-08-17T07:23:12.774Z,32.90
2017-08-17T07:25:40.327Z,32.30
2017-08-17T07:28:08.049Z,32.10
2017-08-17T07:30:35.596Z,32.00
2017-08-17T07:33:03.127Z,31.80
2017-08-17T07:35:30.644Z,33.50
2017-08-17T07:37:58.185Z,33.30
2017-08-17T07:40:25.761Z,33.80
2017-08-17T07:42:53.350Z,33.90
2017-08-17T07:45:20.904Z,33.80
2017-08-17T07:47:48.462Z,33.50
2017-08-17T07:50:16.061Z,33.20
2017-08-17T07:52:43.587Z,33.00
2017-08-17T07:55:11.119Z,32.50
2017-08-17T07:57:38.687Z,32.80
2017-08-17T08:00:06.233Z,32.90
2017-08-17T08:02:33.782Z,33.00
2017-08-17T08:05:01.336Z,32.90
2017-08-17T08:07:28.892Z,32.50
2017-08-17T08:09:56.447Z,32.40
2017-08-17T08:12:23.989Z,33.50
2017-08-17T08:14:51.518Z,34.20
2017-08-17T08:17:19.043Z,34.10
2017-08-17T08:19:46.591Z,35.60
2017-08-17T08:22:14.137Z,36.70
2017-08-17T08:24:41.688Z,36.80
2017-08-17T08:27:09.247Z,36.60
2017-08-17T08:29:36.770Z,35.70
2017-08-17T08:32:04.342Z,35.80
2017-08-17T08:34:31.977Z,35.20
2017-08-17T08:36:59.524Z,34.90
2017-08-17T08:39:27.058Z,35.40
2017-08-17T08:41:54.621Z,34.90
2017-08-17T08:44:22.140Z,35.60
2017-08-17T08:46:49.715Z,35.80
2017-08-17T08:49:17.946Z,36.90
2017-08-17T08:51:45.466Z,37.00
2017-08-17T08:54:13.040Z,37.40
2017-08-17T08:56:40.613Z,38.20
2017-08-17T08:59:08.208Z,38.10
2017-08-17T09:01:35.750Z,38.10
2017-08-17T09:04:03.479Z,38.40
2017-08-17T09:06:31.056Z,37.70
2017-08-17T09:08:58.559Z,37.40
2017-08-17T09:11:26.095Z,37.70
2017-08-17T09:13:53.754Z,38.00
2017-08-17T09:16:21.282Z,37.10
2017-08-17T09:18:48.999Z,37.90
2017-08-17T09:21:16.533Z,38.00
2017-08-17T09:23:44.072Z,37.50
2017-08-17T09:26:11.645Z,38.00
2017-08-17T09:28:39.189Z,37.50
2017-08-17T09:31:06.697Z,38.40
2017-08-17T09:33:34.440Z,37.80
2017-08-17T09:36:01.987Z,37.10
2017-08-17T09:38:29.528Z,37.70
2017-08-17T09:40:57.120Z,37.30
2017-08-17T09:43:24.636Z,37.30
2017-08-17T09:45:52.223Z,36.90
2017-08-17T09:48:19.812Z,37.70
2017-08-17T09:50:47.334Z,37.60
2017-08-17T09:53:14.888Z,37.50
2017-08-17T09:55:48.638Z,36.60
2017-08-17T09:58:16.227Z,36.70
2017-08-17T10:00:43.834Z,37.30
2017-08-17T10:03:11.687Z,37.70
2017-08-17T10:05:39.240Z,37.70
2017-08-17T10:08:06.792Z,37.90
2017-08-17T10:10:34.396Z,36.20
2017-08-17T10:13:01.905Z,35.50
2017-08-17T10:15:29.453Z,36.20
2017-08-17T10:17:57.330Z,36.90
2017-08-17T10:20:25.771Z,37.40
2017-08-17T10:22:53.276Z,36.60
2017-08-17T10:25:20.871Z,36.20
2017-08-17T10:27:48.419Z,35.90
2017-08-17T10:30:15.919Z,35.50
2017-08-17T10:32:43.652Z,35.60
2017-08-17T10:35:11.140Z,36.60
2017-08-17T10:37:38.727Z,36.70
2017-08-17T10:40:06.305Z,36.10
2017-08-17T10:42:33.909Z,37.30
2017-08-17T10:45:01.508Z,38.00
2017-08-17T10:47:29.101Z,37.90
2017-08-17T10:49:56.670Z,37.80
2017-08-17T10:52:24.231Z,37.20
2017-08-17T10:54:51.971Z,35.50
2017-08-17T10:57:19.513Z,35.60
2017-08-17T10:59:47.038Z,36.00
2017-08-17T11:02:14.794Z,34.90
2017-08-17T11:04:42.250Z,35.10
2017-08-17T11:07:09.814Z,34.90
2017-08-17T11:09:37.570Z,34.70
2017-08-17T11:12:05.100Z,34.40
2017-08-17T11:14:32.673Z,34.20
2017-08-17T11:17:00.223Z,33.90
2017-08-17T11:19:27.782Z,34.40
2017-08-17T11:21:55.281Z,35.80
2017-08-17T11:24:22.834Z,36.00
2017-08-17T11:26:50.386Z,36.20
2017-08-17T11:29:17.947Z,36.50
2017-08-17T11:31:45.723Z,36.40
2017-08-17T11:34:13.293Z,36.20
2017-08-17T11:36:40.801Z,36.20
2017-08-17T11:39:08.421Z,35.60
2017-08-17T11:41:36.003Z,34.30
2017-08-17T11:44:03.577Z,33.50
2017-08-17T11:46:31.108Z,33.70
2017-08-17T11:48:58.622Z,33.30
2017-08-17T11:51:25.674Z,32.70
2017-08-17T11:53:53.249Z,32.00
2017-08-17T11:56:20.845Z,31.10
2017-08-17T11:58:48.395Z,30.40
2017-08-17T12:01:15.944Z,29.50
2017-08-17T12:03:43.469Z,28.80
2017-08-17T12:06:11.094Z,28.50
2017-08-17T12:08:38.716Z,28.30
2017-08-17T12:11:06.322Z,27.90
2017-08-17T12:13:33.882Z,27.90
2017-08-17T12:16:01.495Z,27.90
2017-08-17T12:18:29.040Z,27.90
2017-08-17T12:20:56.617Z,27.70
2017-08-17T12:23:24.307Z,27.80
2017-08-17T12:25:51.880Z,27.90
2017-08-17T12:28:19.429Z,28.00
2017-08-17T12:30:47.090Z,28.00
2017-08-17T12:33:15.376Z,28.10
2017-08-17T12:35:42.928Z,28.20
2017-08-17T12:38:10.503Z,28.10
2017-08-17T12:40:38.075Z,27.80
2017-08-17T12:43:05.641Z,27.30
2017-08-17T12:45:33.256Z,26.90
2017-08-17T12:48:00.821Z,27.00
2017-08-17T12:50:28.408Z,27.00
2017-08-17T12:52:56.005Z,27.00
2017-08-17T12:55:23.591Z,27.00
2017-08-17T12:57:51.151Z,27.00
2017-08-17T13:00:18.760Z,26.70
2017-08-17T13:02:46.334Z,26.50
2017-08-17T13:05:13.867Z,26.70
2017-08-17T13:07:41.619Z,26.50
2017-08-17T13:10:09.179Z,26.70
2017-08-17T13:12:36.686Z,26.40
2017-08-17T13:15:04.273Z,26.40
2017-08-17T13:17:31.787Z,26.10
2017-08-17T13:19:59.376Z,26.20
2017-08-17T13:22:26.923Z,26.10
2017-08-17T13:24:54.509Z,25.70
2017-08-17T13:27:22.107Z,25.60
2017-08-17T13:29:50.807Z,25.60
2017-08-17T13:32:18.376Z,25.80
2017-08-17T13:34:45.932Z,25.70
2017-08-17T13:37:13.558Z,25.20
2017-08-17T13:39:41.131Z,25.30
2017-08-17T13:42:08.714Z,25.30
2017-08-17T13:44:36.382Z,25.40
2017-08-17T13:47:03.968Z,25.20
2017-08-17T13:49:31.730Z,25.40
2017-08-17T13:51:59.442Z,25.40
2017-08-17T13:54:27.042Z,25.30
2017-08-17T13:56:54.682Z,25.30
2017-08-17T13:59:22.355Z,25.30
2017-08-17T14:01:50.006Z,25.20
2017-08-17T14:04:17.650Z,25.20
2017-08-17T14:06:45.522Z,25.30
2017-08-17T14:09:13.237Z,25.40
2017-08-17T14:11:40.822Z,25.60
2017-08-17T14:14:08.494Z,25.60
2017-08-17T14:16:36.070Z,25.70
2017-08-17T14:19:03.643Z,25.60
2017-08-17T14:21:31.240Z,25.70
2017-08-17T14:23:58.842Z,25.60
2017-08-17T14:26:26.473Z,25.60
2017-08-17T14:28:54.067Z,25.40
2017-08-17T14:31:21.716Z,25.40
2017-08-17T14:33:49.339Z,25.50
2017-08-17T14:36:17.230Z,25.50
2017-08-17T14:38:45.742Z,25.50
2017-08-17T14:41:13.368Z,25.50
2017-08-17T14:43:41.078Z,25.30
2017-08-17T14:46:08.802Z,25.10
2017-08-17T14:48:36.966Z,25.00
2017-08-17T14:51:04.646Z,24.80
2017-08-17T14:53:33.683Z,24.70
2017-08-17T14:56:01.248Z,24.70
2017-08-17T14:58:28.884Z,24.70
2017-08-17T15:00:56.488Z,24.80
2017-08-17T15:03:24.090Z,24.90
2017-08-17T15:05:51.696Z,25.00
2017-08-17T15:08:19.550Z,25.00
2017-08-17T15:10:47.099Z,25.00
2017-08-17T15:13:14.722Z,25.00
2017-08-17T15:15:42.429Z,24.90
2017-08-17T15:18:09.982Z,24.90
2017-08-17T15:20:37.633Z,24.90
2017-08-17T15:23:05.247Z,24.90
2017-08-17T15:25:32.845Z,24.90
2017-08-17T15:28:00.513Z,24.90
2017-08-17T15:30:28.439Z,24.80
2017-08-17T15:32:56.021Z,24.90
2017-08-17T15:35:23.814Z,24.80
2017-08-17T15:37:51.445Z,24.90
2017-08-17T15:40:19.006Z,25.00
2017-08-17T15:42:46.705Z,24.90
2017-08-17T15:45:14.278Z,24.90
2017-08-17T15:47:41.840Z,24.90
2017-08-17T15:50:09.491Z,24.90
2017-08-17T15:52:37.116Z,24.90
2017-08-17T15:55:04.825Z,24.80
2017-08-17T15:57:32.432Z,24.70
2017-08-17T16:00:00.030Z,24.50
2017-08-17T16:02:27.601Z,24.30
2017-08-17T16:04:55.221Z,24.30
2017-08-17T16:07:22.751Z,24.00
2017-08-17T16:09:50.333Z,24.00
2017-08-17T16:12:17.890Z,24.00
2017-08-17T16:14:45.496Z,23.90
2017-08-17T16:17:13.075Z,23.90
2017-08-17T16:19:40.681Z,23.80
2017-08-17T16:22:08.250Z,23.80
2017-08-17T16:24:35.803Z,23.70
2017-08-17T16:27:03.577Z,23.70
2017-08-17T16:29:31.142Z,23.60
2017-08-17T16:31:58.711Z,23.60
2017-08-17T16:34:26.330Z,23.60
2017-08-17T16:36:53.940Z,23.50
2017-08-17T16:39:21.692Z,23.40
2017-08-17T16:41:49.302Z,23.40
2017-08-17T16:44:16.844Z,23.30
2017-08-17T16:46:44.466Z,23.30
2017-08-17T16:49:12.376Z,23.30
2017-08-17T16:51:39.963Z,23.30
2017-08-17T16:54:07.563Z,23.40
2017-08-17T16:56:35.121Z,23.40
2017-08-17T16:59:02.671Z,23.40
2017-08-17T17:01:30.267Z,23.30
2017-08-17T17:03:57.910Z,23.30
2017-08-17T17:06:25.424Z,23.30
2017-08-17T17:08:52.992Z,23.20
2017-08-17T17:11:20.906Z,23.20
2017-08-17T17:13:48.457Z,23.10
2017-08-17T17:16:16.027Z,23.00
2017-08-17T17:18:43.656Z,23.00
2017-08-17T17:21:11.258Z,22.90
2017-08-17T17:23:38.825Z,22.90
2017-08-17T17:26:06.598Z,22.80
2017-08-17T17:28:34.211Z,22.70
2017-08-17T17:31:01.922Z,22.70
2017-08-17T17:33:29.570Z,22.60
2017-08-17T17:35:57.201Z,22.50
2017-08-17T17:38:24.803Z,22.40
2017-08-17T17:40:52.589Z,22.40
2017-08-17T17:43:20.289Z,22.40
2017-08-17T17:45:47.957Z,22.30
2017-08-17T17:48:15.551Z,22.20
2017-08-17T17:50:43.163Z,22.10
2017-08-17T17:53:10.750Z,22.00
2017-08-17T17:55:38.439Z,21.90
2017-08-17T17:58:06.019Z,21.80
2017-08-17T18:00:33.626Z,21.80
2017-08-17T18:03:01.305Z,21.70
2017-08-17T18:05:28.915Z,21.60
2017-08-17T18:07:56.503Z,21.60
2017-08-17T18:10:24.284Z,21.50
2017-08-17T18:12:53.849Z,21.40
2017-08-17T18:15:21.397Z,21.30
2017-08-17T18:17:49.022Z,21.20
2017-08-17T18:20:16.633Z,21.10
2017-08-17T18:22:45.225Z,21.00
2017-08-17T18:25:12.869Z,20.80
2017-08-17T18:27:40.521Z,20.70
2017-08-17T18:30:08.313Z,20.60
2017-08-17T18:32:36.150Z,20.40
2017-08-17T18:35:03.720Z,20.30
2017-08-17T18:37:31.281Z,20.20
2017-08-17T18:39:59.565Z,20.20
2017-08-17T18:42:27.130Z,20.20
2017-08-17T18:44:54.858Z,20.10
2017-08-17T18:47:22.673Z,20.10
2017-08-17T18:49:50.229Z,20.00
2017-08-17T18:52:17.886Z,20.00
2017-08-17T18:54:45.660Z,19.90
2017-08-17T18:57:13.342Z,19.80
2017-08-17T18:59:41.075Z,19.70
2017-08-17T19:02:08.882Z,19.70
2017-08-17T19:04:36.491Z,19.60
2017-08-17T19:07:04.032Z,19.60
2017-08-17T19:09:31.698Z,19.60
2017-08-17T19:12:00.331Z,19.70
2017-08-17T19:14:28.867Z,19.80
2017-08-17T19:16:56.799Z,19.70
2017-08-17T19:19:24.427Z,19.70
2017-08-17T19:21:52.867Z,19.70
2017-08-17T19:24:20.513Z,19.60
2017-08-17T19:26:50.677Z,19.60
2017-08-17T19:29:18.270Z,19.50
2017-08-17T19:32:28.212Z,19.50
2017-08-17T19:34:55.831Z,19.50
2017-08-17T19:37:24.861Z,19.50
2017-08-17T19:39:52.591Z,19.40
2017-08-17T19:42:21.016Z,19.40
2017-08-17T19:44:48.885Z,19.50
2017-08-17T19:47:16.532Z,19.50
2017-08-17T19:49:44.867Z,19.50
2017-08-17T19:52:12.445Z,19.50
2017-08-17T19:54:40.159Z,19.50
2017-08-17T19:57:07.833Z,19.50
2017-08-17T19:59:36.748Z,19.50
2017-08-17T20:02:04.322Z,19.50
2017-08-17T20:04:32.637Z,19.50
2017-08-17T20:07:00.300Z,19.50
2017-08-17T20:09:27.966Z,19.40
2017-08-17T20:11:55.656Z,19.30
2017-08-17T20:14:24.279Z,19.30
2017-08-17T20:16:52.043Z,19.20
2017-08-17T20:19:19.584Z,19.10
2017-08-17T20:21:47.136Z,19.10
2017-08-17T20:24:14.754Z,19.10
2017-08-17T20:26:42.318Z,19.10
2017-08-17T20:29:09.883Z,19.00
2017-08-17T20:31:37.520Z,19.00
2017-08-17T20:34:05.889Z,19.10
2017-08-17T20:36:33.464Z,19.10
2017-08-17T20:39:01.047Z,19.00
2017-08-17T20:41:28.662Z,18.90
2017-08-17T20:43:57.391Z,18.80
2017-08-17T20:46:25.056Z,18.80
2017-08-17T20:48:52.654Z,18.70
2017-08-17T20:51:20.275Z,18.70
2017-08-17T20:53:47.898Z,18.60
2017-08-17T20:56:15.480Z,18.60
2017-08-17T20:58:43.173Z,18.60
2017-08-17T21:01:10.998Z,18.50
2017-08-17T21:03:38.625Z,18.50
2017-08-17T21:06:06.281Z,18.40
2017-08-17T21:08:33.895Z,18.50
2017-08-17T21:11:01.504Z,18.40
2017-08-17T21:13:29.698Z,18.40
2017-08-17T21:15:58.028Z,18.40
2017-08-17T21:18:26.361Z,18.40
2017-08-17T21:20:54.137Z,18.30
2017-08-17T21:23:21.930Z,18.30
2017-08-17T21:25:49.495Z,18.40
2017-08-17T21:28:17.064Z,18.40
2017-08-17T21:30:44.656Z,18.40
2017-08-17T21:33:12.265Z,18.40
2017-08-17T21:35:39.851Z,18.40
2017-08-17T21:38:07.499Z,18.30
2017-08-17T21:40:35.122Z,18.30
2017-08-17T21:43:02.702Z,18.30
2017-08-17T21:45:30.496Z,18.30
2017-08-17T21:47:58.067Z,18.20
2017-08-17T21:50:25.652Z,18.20
2017-08-17T21:52:53.316Z,18.20
2017-08-17T21:55:20.915Z,18.20
2017-08-17T21:57:48.511Z,18.20
2017-08-17T22:00:16.211Z,18.30
2017-08-17T22:02:44.102Z,18.30
2017-08-17T22:05:11.670Z,18.30
2017-08-17T22:07:39.319Z,18.30
2017-08-17T22:10:06.859Z,18.40
2017-08-17T22:12:34.439Z,18.40
2017-08-17T22:15:02.023Z,18.40
2017-08-17T22:17:29.617Z,18.30
2017-08-17T22:19:57.199Z,18.30
2017-08-17T22:22:24.824Z,18.30
2017-08-17T22:24:52.413Z,18.30
2017-08-17T22:27:19.935Z,18.40
2017-08-17T22:29:47.566Z,18.40
2017-08-17T22:32:15.162Z,18.40
2017-08-17T22:34:42.764Z,18.40
2017-08-17T22:37:10.378Z,18.50
2017-08-17T22:39:37.932Z,18.50
2017-08-17T22:42:05.543Z,18.50
2017-08-17T22:44:33.142Z,18.50
2017-08-17T22:47:00.730Z,18.40
2017-08-17T22:49:28.260Z,18.30
2017-08-17T22:51:56.054Z,18.30
2017-08-17T22:54:23.627Z,18.30
2017-08-17T22:56:51.170Z,18.30
2017-08-17T22:59:18.754Z,18.20
2017-08-17T23:01:46.300Z,18.20
2017-08-17T23:04:13.887Z,18.30
2017-08-17T23:06:41.517Z,18.30
2017-08-17T23:09:09.103Z,18.40
2017-08-17T23:11:36.674Z,18.40
2017-08-17T23:14:04.428Z,18.40
2017-08-17T23:16:32.027Z,18.50
2017-08-17T23:18:59.604Z,18.50
2017-08-17T23:21:27.378Z,18.60
2017-08-17T23:23:54.902Z,18.70
2017-08-17T23:26:22.451Z,18.70
2017-08-17T23:28:50.234Z,18.80
2017-08-17T23:31:17.809Z,18.80
2017-08-17T23:33:45.345Z,18.80
2017-08-17T23:36:12.937Z,18.90
2017-08-17T23:38:40.518Z,18.90
2017-08-17T23:41:08.082Z,18.80
2017-08-17T23:43:35.870Z,18.90
2017-08-17T23:46:03.445Z,18.90
2017-08-17T23:48:31.005Z,18.80
2017-08-17T23:50:58.607Z,18.90
2017-08-17T23:53:26.137Z,18.90
2017-08-17T23:55:53.675Z,18.90
2017-08-17T23:58:21.327Z,18.80
